sensor_id;sensor_type;location;lat;lon;timestamp;pressure;altitude;pressure_sealevel;temperature;humidity
36062;BME280;22123;52.412;20.970;2023-07-31T00:00:44;100009.22;;;18.04;100.00
36062;BME280;22123;52.412;20.970;2023-07-31T00:03:10;99998.06;;;17.94;100.00
36062;BME280;22123;52.412;20.970;2023-07-31T00:05:35;100037.56;;;18.15;100.00
36062;BME280;22123;52.412;20.970;2023-07-31T00:08:01;100021.28;;;17.96;100.00
36062;BME280;22123;52.412;20.970;2023-07-31T00:10:27;100012.56;;;17.87;100.00
36062;BME280;22123;52.412;20.970;2023-07-31T00:12:53;100041.53;;;18.00;100.00
36062;BME280;22123;52.412;20.970;2023-07-31T00:15:18;100012.66;;;17.81;100.00
36062;BME280;22123;52.412;20.970;2023-07-31T00:17:44;100005.41;;;17.75;100.00
36062;BME280;22123;52.412;20.970;2023-07-31T00:20:10;100037.38;;;17.98;100.00
36062;BME280;22123;52.412;20.970;2023-07-31T00:22:36;100018.09;;;17.81;100.00
36062;BME280;22123;52.412;20.970;2023-07-31T00:25:02;100034.75;;;17.91;100.00
36062;BME280;22123;52.412;20.970;2023-07-31T00:27:27;100041.56;;;17.82;100.00
36062;BME280;22123;52.412;20.970;2023-07-31T00:29:53;100020.41;;;17.65;100.00
36062;BME280;22123;52.412;20.970;2023-07-31T00:32:19;100041.41;;;17.77;100.00
36062;BME280;22123;52.412;20.970;2023-07-31T00:34:45;100011.47;;;17.58;100.00
36062;BME280;22123;52.412;20.970;2023-07-31T00:37:10;100045.78;;;17.78;100.00
36062;BME280;22123;52.412;20.970;2023-07-31T00:39:36;100029.19;;;17.67;100.00
36062;BME280;22123;52.412;20.970;2023-07-31T00:42:02;100019.22;;;17.61;100.00
36062;BME280;22123;52.412;20.970;2023-07-31T00:44:28;100009.47;;;17.53;100.00
36062;BME280;22123;52.412;20.970;2023-07-31T00:46:54;100047.94;;;17.76;100.00
36062;BME280;22123;52.412;20.970;2023-07-31T00:49:22;100012.88;;;17.49;100.00
36062;BME280;22123;52.412;20.970;2023-07-31T00:51:48;100000.78;;;17.45;100.00
36062;BME280;22123;52.412;20.970;2023-07-31T00:54:14;100005.75;;;17.48;100.00
36062;BME280;22123;52.412;20.970;2023-07-31T00:56:40;100039.13;;;17.73;100.00
36062;BME280;22123;52.412;20.970;2023-07-31T00:59:06;100044.81;;;17.72;100.00
36062;BME280;22123;52.412;20.970;2023-07-31T01:01:32;100045.03;;;17.70;100.00
36062;BME280;22123;52.412;20.970;2023-07-31T01:03:57;100038.63;;;17.65;100.00
36062;BME280;22123;52.412;20.970;2023-07-31T01:06:36;100043.03;;;17.66;100.00
36062;BME280;22123;52.412;20.970;2023-07-31T01:09:11;100031.50;;;17.64;100.00
36062;BME280;22123;52.412;20.970;2023-07-31T01:11:46;100029.47;;;17.59;100.00
36062;BME280;22123;52.412;20.970;2023-07-31T01:14:13;99990.06;;;17.31;100.00
36062;BME280;22123;52.412;20.970;2023-07-31T01:16:39;100028.66;;;17.59;100.00
36062;BME280;22123;52.412;20.970;2023-07-31T01:19:06;100034.34;;;17.57;100.00
36062;BME280;22123;52.412;20.970;2023-07-31T01:21:41;100031.00;;;17.55;100.00
36062;BME280;22123;52.412;20.970;2023-07-31T01:26:45;100020.88;;;17.44;100.00
36062;BME280;22123;52.412;20.970;2023-07-31T01:29:20;100003.91;;;17.30;100.00
36062;BME280;22123;52.412;20.970;2023-07-31T01:31:49;100028.16;;;17.31;100.00
36062;BME280;22123;52.412;20.970;2023-07-31T01:34:17;100013.63;;;17.19;100.00
36062;BME280;22123;52.412;20.970;2023-07-31T01:36:43;100037.13;;;17.32;100.00
36062;BME280;22123;52.412;20.970;2023-07-31T01:39:09;100026.94;;;17.27;100.00
36062;BME280;22123;52.412;20.970;2023-07-31T01:41:35;100048.25;;;17.30;100.00
36062;BME280;22123;52.412;20.970;2023-07-31T01:44:01;100051.66;;;17.26;100.00
36062;BME280;22123;52.412;20.970;2023-07-31T01:46:26;100061.56;;;17.20;100.00
36062;BME280;22123;52.412;20.970;2023-07-31T01:48:52;100053.84;;;17.17;100.00
36062;BME280;22123;52.412;20.970;2023-07-31T01:51:18;100054.06;;;17.15;100.00
36062;BME280;22123;52.412;20.970;2023-07-31T01:53:44;100021.66;;;16.95;100.00
36062;BME280;22123;52.412;20.970;2023-07-31T01:56:09;100052.03;;;17.11;100.00
36062;BME280;22123;52.412;20.970;2023-07-31T01:58:35;100050.81;;;17.07;100.00
36062;BME280;22123;52.412;20.970;2023-07-31T02:01:01;100018.81;;;16.83;100.00
36062;BME280;22123;52.412;20.970;2023-07-31T02:03:27;100056.09;;;17.01;100.00
36062;BME280;22123;52.412;20.970;2023-07-31T02:05:54;100007.22;;;16.69;100.00
36062;BME280;22123;52.412;20.970;2023-07-31T02:08:20;100053.44;;;16.95;100.00
36062;BME280;22123;52.412;20.970;2023-07-31T02:10:45;100064.56;;;16.93;100.00
36062;BME280;22123;52.412;20.970;2023-07-31T02:13:11;100039.38;;;16.73;100.00
36062;BME280;22123;52.412;20.970;2023-07-31T02:15:37;100058.31;;;16.86;100.00
36062;BME280;22123;52.412;20.970;2023-07-31T02:18:03;100041.97;;;16.67;100.00
36062;BME280;22123;52.412;20.970;2023-07-31T02:20:29;100071.28;;;16.84;100.00
36062;BME280;22123;52.412;20.970;2023-07-31T02:22:54;100048.53;;;16.78;100.00
36062;BME280;22123;52.412;20.970;2023-07-31T02:25:21;100054.66;;;16.74;100.00
36062;BME280;22123;52.412;20.970;2023-07-31T02:27:47;100065.94;;;16.77;100.00
36062;BME280;22123;52.412;20.970;2023-07-31T02:30:13;100054.91;;;16.65;100.00
36062;BME280;22123;52.412;20.970;2023-07-31T02:32:39;100064.28;;;16.69;100.00
36062;BME280;22123;52.412;20.970;2023-07-31T02:35:05;100053.56;;;16.56;100.00
36062;BME280;22123;52.412;20.970;2023-07-31T02:37:30;100062.31;;;16.58;100.00
36062;BME280;22123;52.412;20.970;2023-07-31T02:39:56;100068.97;;;16.62;100.00
36062;BME280;22123;52.412;20.970;2023-07-31T02:42:22;100061.53;;;16.51;100.00
36062;BME280;22123;52.412;20.970;2023-07-31T02:44:48;100079.38;;;16.65;100.00
36062;BME280;22123;52.412;20.970;2023-07-31T02:47:13;100056.59;;;16.41;100.00
36062;BME280;22123;52.412;20.970;2023-07-31T02:49:39;100080.69;;;16.63;100.00
36062;BME280;22123;52.412;20.970;2023-07-31T02:52:05;100085.03;;;16.64;100.00
36062;BME280;22123;52.412;20.970;2023-07-31T02:54:31;100071.13;;;16.54;100.00
36062;BME280;22123;52.412;20.970;2023-07-31T02:56:57;100082.31;;;16.64;100.00
36062;BME280;22123;52.412;20.970;2023-07-31T02:59:23;100038.19;;;16.43;100.00
36062;BME280;22123;52.412;20.970;2023-07-31T03:01:49;100050.09;;;16.42;100.00
36062;BME280;22123;52.412;20.970;2023-07-31T03:04:14;100082.72;;;16.67;100.00
36062;BME280;22123;52.412;20.970;2023-07-31T03:06:40;100079.81;;;16.62;100.00
36062;BME280;22123;52.412;20.970;2023-07-31T03:09:06;100079.59;;;16.64;100.00
36062;BME280;22123;52.412;20.970;2023-07-31T03:11:32;100044.47;;;16.44;100.00
36062;BME280;22123;52.412;20.970;2023-07-31T03:13:57;100081.50;;;16.63;100.00
36062;BME280;22123;52.412;20.970;2023-07-31T03:16:23;100054.00;;;16.53;100.00
36062;BME280;22123;52.412;20.970;2023-07-31T03:18:49;100080.16;;;16.73;100.00
36062;BME280;22123;52.412;20.970;2023-07-31T03:21:15;100050.00;;;16.56;100.00
36062;BME280;22123;52.412;20.970;2023-07-31T03:23:40;100075.13;;;16.76;100.00
36062;BME280;22123;52.412;20.970;2023-07-31T03:26:07;100020.63;;;16.46;100.00
36062;BME280;22123;52.412;20.970;2023-07-31T03:28:33;100075.34;;;16.75;100.00
36062;BME280;22123;52.412;20.970;2023-07-31T03:30:59;100078.00;;;16.81;100.00
36062;BME280;22123;52.412;20.970;2023-07-31T03:33:25;100012.91;;;16.43;100.00
36062;BME280;22123;52.412;20.970;2023-07-31T03:35:51;100054.88;;;16.72;100.00
36062;BME280;22123;52.412;20.970;2023-07-31T03:38:17;100085.69;;;16.91;100.00
36062;BME280;22123;52.412;20.970;2023-07-31T03:40:43;100060.97;;;16.67;100.00
36062;BME280;22123;52.412;20.970;2023-07-31T03:43:09;100092.38;;;16.89;100.00
36062;BME280;22123;52.412;20.970;2023-07-31T03:45:35;100067.19;;;16.75;100.00
36062;BME280;22123;52.412;20.970;2023-07-31T03:48:01;100095.53;;;16.85;100.00
36062;BME280;22123;52.412;20.970;2023-07-31T03:50:26;100089.31;;;16.78;100.00
36062;BME280;22123;52.412;20.970;2023-07-31T03:52:52;100105.78;;;16.90;100.00
36062;BME280;22123;52.412;20.970;2023-07-31T03:55:18;100104.34;;;16.88;100.00
36062;BME280;22123;52.412;20.970;2023-07-31T03:57:44;100085.59;;;16.73;100.00
36062;BME280;22123;52.412;20.970;2023-07-31T04:00:10;100114.53;;;16.92;100.00
36062;BME280;22123;52.412;20.970;2023-07-31T04:02:35;100113.56;;;16.80;100.00
36062;BME280;22123;52.412;20.970;2023-07-31T04:05:01;100117.63;;;16.96;100.00
36062;BME280;22123;52.412;20.970;2023-07-31T04:07:27;100077.88;;;16.69;100.00
36062;BME280;22123;52.412;20.970;2023-07-31T04:09:53;100123.47;;;16.99;100.00
36062;BME280;22123;52.412;20.970;2023-07-31T04:12:18;100080.38;;;16.71;100.00
36062;BME280;22123;52.412;20.970;2023-07-31T04:14:44;100115.91;;;17.01;100.00
36062;BME280;22123;52.412;20.970;2023-07-31T04:17:10;100089.88;;;16.87;100.00
36062;BME280;22123;52.412;20.970;2023-07-31T04:19:36;100119.63;;;17.07;100.00
36062;BME280;22123;52.412;20.970;2023-07-31T04:22:02;100105.72;;;16.97;100.00
36062;BME280;22123;52.412;20.970;2023-07-31T04:24:27;100133.41;;;17.12;100.00
36062;BME280;22123;52.412;20.970;2023-07-31T04:26:53;100117.53;;;17.09;100.00
36062;BME280;22123;52.412;20.970;2023-07-31T04:29:19;100092.13;;;16.97;100.00
36062;BME280;22123;52.412;20.970;2023-07-31T04:31:45;100105.66;;;17.03;100.00
36062;BME280;22123;52.412;20.970;2023-07-31T04:34:11;100136.03;;;17.19;100.00
36062;BME280;22123;52.412;20.970;2023-07-31T04:36:37;100125.00;;;17.14;100.00
36062;BME280;22123;52.412;20.970;2023-07-31T04:39:03;100136.22;;;17.24;100.00
36062;BME280;22123;52.412;20.970;2023-07-31T04:41:28;100115.03;;;17.08;100.00
36062;BME280;22123;52.412;20.970;2023-07-31T04:43:54;100138.03;;;17.30;100.00
36062;BME280;22123;52.412;20.970;2023-07-31T04:46:20;100127.44;;;17.22;100.00
36062;BME280;22123;52.412;20.970;2023-07-31T04:48:46;100087.06;;;17.00;100.00
36062;BME280;22123;52.412;20.970;2023-07-31T04:51:12;100149.66;;;17.37;100.00
36062;BME280;22123;52.412;20.970;2023-07-31T04:53:37;100121.78;;;17.24;100.00
36062;BME280;22123;52.412;20.970;2023-07-31T04:56:06;100100.44;;;17.20;100.00
36062;BME280;22123;52.412;20.970;2023-07-31T04:58:34;100129.13;;;17.42;100.00
36062;BME280;22123;52.412;20.970;2023-07-31T05:01:00;100135.56;;;17.47;100.00
36062;BME280;22123;52.412;20.970;2023-07-31T05:03:26;100136.78;;;17.51;100.00
36062;BME280;22123;52.412;20.970;2023-07-31T05:05:52;100134.63;;;17.53;100.00
36062;BME280;22123;52.412;20.970;2023-07-31T05:08:17;100145.81;;;17.64;100.00
36062;BME280;22123;52.412;20.970;2023-07-31T05:10:43;100133.72;;;17.60;100.00
36062;BME280;22123;52.412;20.970;2023-07-31T05:13:09;100101.91;;;17.42;100.00
36062;BME280;22123;52.412;20.970;2023-07-31T05:15:35;100153.47;;;17.73;100.00
36062;BME280;22123;52.412;20.970;2023-07-31T05:18:01;100148.03;;;17.73;100.00
36062;BME280;22123;52.412;20.970;2023-07-31T05:20:27;100142.00;;;17.71;100.00
36062;BME280;22123;52.412;20.970;2023-07-31T05:22:52;100160.25;;;17.83;100.00
36062;BME280;22123;52.412;20.970;2023-07-31T05:25:18;100154.22;;;17.81;100.00
36062;BME280;22123;52.412;20.970;2023-07-31T05:27:44;100164.41;;;17.92;100.00
36062;BME280;22123;52.412;20.970;2023-07-31T05:30:10;100118.78;;;17.69;100.00
36062;BME280;22123;52.412;20.970;2023-07-31T05:32:36;100123.47;;;17.80;100.00
36062;BME280;22123;52.412;20.970;2023-07-31T05:35:01;100153.56;;;18.04;100.00
36062;BME280;22123;52.412;20.970;2023-07-31T05:37:27;100132.06;;;17.96;100.00
36062;BME280;22123;52.412;20.970;2023-07-31T05:39:53;100165.91;;;18.06;100.00
36062;BME280;22123;52.412;20.970;2023-07-31T05:42:19;100168.50;;;18.13;100.00
36062;BME280;22123;52.412;20.970;2023-07-31T05:44:44;100162.63;;;18.16;100.00
36062;BME280;22123;52.412;20.970;2023-07-31T05:47:10;100142.44;;;18.05;100.00
36062;BME280;22123;52.412;20.970;2023-07-31T05:49:36;100171.09;;;18.27;100.00
36062;BME280;22123;52.412;20.970;2023-07-31T05:52:02;100160.97;;;18.15;100.00
36062;BME280;22123;52.412;20.970;2023-07-31T05:54:28;100140.72;;;17.93;100.00
36062;BME280;22123;52.412;20.970;2023-07-31T05:56:54;100185.59;;;18.20;100.00
36062;BME280;22123;52.412;20.970;2023-07-31T05:59:19;100147.34;;;18.15;100.00
36062;BME280;22123;52.412;20.970;2023-07-31T06:01:45;100180.53;;;18.24;100.00
36062;BME280;22123;52.412;20.970;2023-07-31T06:04:11;100187.78;;;18.30;100.00
36062;BME280;22123;52.412;20.970;2023-07-31T06:06:37;100126.09;;;17.87;100.00
36062;BME280;22123;52.412;20.970;2023-07-31T06:09:03;100171.22;;;18.13;100.00
36062;BME280;22123;52.412;20.970;2023-07-31T06:11:29;100200.06;;;18.21;100.00
36062;BME280;22123;52.412;20.970;2023-07-31T06:13:54;100187.38;;;18.15;100.00
36062;BME280;22123;52.412;20.970;2023-07-31T06:16:20;100204.31;;;18.17;100.00
36062;BME280;22123;52.412;20.970;2023-07-31T06:18:46;100204.53;;;18.15;100.00
36062;BME280;22123;52.412;20.970;2023-07-31T06:21:12;100211.44;;;18.18;100.00
36062;BME280;22123;52.412;20.970;2023-07-31T06:23:38;100200.66;;;18.23;100.00
36062;BME280;22123;52.412;20.970;2023-07-31T06:26:04;100166.13;;;18.05;100.00
36062;BME280;22123;52.412;20.970;2023-07-31T06:28:29;100196.44;;;18.27;100.00
36062;BME280;22123;52.412;20.970;2023-07-31T06:30:56;100178.81;;;18.11;100.00
36062;BME280;22123;52.412;20.970;2023-07-31T06:33:23;100180.72;;;18.11;100.00
36062;BME280;22123;52.412;20.970;2023-07-31T06:35:49;100177.53;;;18.14;100.00
36062;BME280;22123;52.412;20.970;2023-07-31T06:38:15;100185.25;;;18.17;100.00
36062;BME280;22123;52.412;20.970;2023-07-31T06:40:41;100210.44;;;18.12;100.00
36062;BME280;22123;52.412;20.970;2023-07-31T06:43:06;100175.06;;;17.94;100.00
36062;BME280;22123;52.412;20.970;2023-07-31T06:45:35;100169.16;;;17.97;100.00
36062;BME280;22123;52.412;20.970;2023-07-31T06:48:01;100200.59;;;18.11;100.00
36062;BME280;22123;52.412;20.970;2023-07-31T06:50:31;100175.41;;;17.97;100.00
36062;BME280;22123;52.412;20.970;2023-07-31T06:52:57;100173.44;;;18.04;100.00
36062;BME280;22123;52.412;20.970;2023-07-31T06:55:23;100205.28;;;18.41;100.00
36062;BME280;22123;52.412;20.970;2023-07-31T06:57:51;100182.81;;;18.27;100.00
36062;BME280;22123;52.412;20.970;2023-07-31T07:00:18;100213.09;;;18.49;100.00
36062;BME280;22123;52.412;20.970;2023-07-31T07:02:45;100197.31;;;18.39;100.00
36062;BME280;22123;52.412;20.970;2023-07-31T07:05:11;100176.44;;;18.33;100.00
36062;BME280;22123;52.412;20.970;2023-07-31T07:07:37;100182.63;;;18.40;100.00
36062;BME280;22123;52.412;20.970;2023-07-31T07:10:03;100205.53;;;18.51;100.00
36062;BME280;22123;52.412;20.970;2023-07-31T07:12:30;100173.38;;;18.41;100.00
36062;BME280;22123;52.412;20.970;2023-07-31T07:14:56;100205.13;;;18.66;100.00
36062;BME280;22123;52.412;20.970;2023-07-31T07:17:22;100215.47;;;18.76;100.00
36062;BME280;22123;52.412;20.970;2023-07-31T07:19:48;100203.50;;;18.77;100.00
36062;BME280;22123;52.412;20.970;2023-07-31T07:22:14;100205.94;;;18.97;100.00
36062;BME280;22123;52.412;20.970;2023-07-31T07:24:39;100217.53;;;18.92;100.00
36062;BME280;22123;52.412;20.970;2023-07-31T07:27:06;100210.00;;;19.06;100.00
36062;BME280;22123;52.412;20.970;2023-07-31T07:29:33;100206.22;;;19.19;100.00
36062;BME280;22123;52.412;20.970;2023-07-31T07:32:00;100173.91;;;19.04;100.00
36062;BME280;22123;52.412;20.970;2023-07-31T07:34:26;100180.94;;;19.24;100.00
36062;BME280;22123;52.412;20.970;2023-07-31T07:36:52;100187.00;;;19.38;100.00
36062;BME280;22123;52.412;20.970;2023-07-31T07:39:18;100208.81;;;19.73;100.00
36062;BME280;22123;52.412;20.970;2023-07-31T07:41:44;100174.88;;;19.81;100.00
36062;BME280;22123;52.412;20.970;2023-07-31T07:44:10;100183.41;;;19.96;100.00
36062;BME280;22123;52.412;20.970;2023-07-31T07:46:35;100194.53;;;20.07;100.00
36062;BME280;22123;52.412;20.970;2023-07-31T07:49:01;100183.00;;;20.17;100.00
36062;BME280;22123;52.412;20.970;2023-07-31T07:51:27;100191.25;;;20.33;100.00
36062;BME280;22123;52.412;20.970;2023-07-31T07:53:53;100150.31;;;20.10;100.00
36062;BME280;22123;52.412;20.970;2023-07-31T07:56:19;100175.28;;;20.42;100.00
36062;BME280;22123;52.412;20.970;2023-07-31T07:58:48;100184.25;;;20.55;100.00
36062;BME280;22123;52.412;20.970;2023-07-31T08:01:14;100187.97;;;20.48;100.00
36062;BME280;22123;52.412;20.970;2023-07-31T08:03:40;100171.91;;;20.23;100.00
36062;BME280;22123;52.412;20.970;2023-07-31T08:06:06;100188.72;;;20.44;100.00
36062;BME280;22123;52.412;20.970;2023-07-31T08:08:32;100151.06;;;20.34;100.00
36062;BME280;22123;52.412;20.970;2023-07-31T08:10:58;100169.84;;;20.59;100.00
36062;BME280;22123;52.412;20.970;2023-07-31T08:13:23;100194.78;;;20.75;100.00
36062;BME280;22123;52.412;20.970;2023-07-31T08:15:49;100195.97;;;20.96;100.00
36062;BME280;22123;52.412;20.970;2023-07-31T08:18:15;100179.28;;;20.97;100.00
36062;BME280;22123;52.412;20.970;2023-07-31T08:20:41;100159.03;;;21.15;100.00
36062;BME280;22123;52.412;20.970;2023-07-31T08:23:07;100192.13;;;21.31;100.00
36062;BME280;22123;52.412;20.970;2023-07-31T08:25:34;100197.69;;;21.36;100.00
36062;BME280;22123;52.412;20.970;2023-07-31T08:28:01;100188.41;;;21.54;100.00
36062;BME280;22123;52.412;20.970;2023-07-31T08:30:27;100197.38;;;21.88;100.00
36062;BME280;22123;52.412;20.970;2023-07-31T08:32:53;100176.59;;;21.53;100.00
36062;BME280;22123;52.412;20.970;2023-07-31T08:35:19;100178.88;;;21.79;100.00
36062;BME280;22123;52.412;20.970;2023-07-31T08:37:45;100182.66;;;21.95;100.00
36062;BME280;22123;52.412;20.970;2023-07-31T08:40:11;100190.03;;;22.16;100.00
36062;BME280;22123;52.412;20.970;2023-07-31T08:42:46;100192.66;;;22.06;100.00
36062;BME280;22123;52.412;20.970;2023-07-31T08:45:16;100212.59;;;22.01;100.00
36062;BME280;22123;52.412;20.970;2023-07-31T08:47:51;100203.53;;;22.01;100.00
36062;BME280;22123;52.412;20.970;2023-07-31T08:50:18;100184.78;;;21.93;100.00
36062;BME280;22123;52.412;20.970;2023-07-31T08:52:49;100200.63;;;22.08;100.00
36062;BME280;22123;52.412;20.970;2023-07-31T08:55:15;100160.22;;;21.76;100.00
36062;BME280;22123;52.412;20.970;2023-07-31T08:57:42;100181.25;;;21.92;100.00
36062;BME280;22123;52.412;20.970;2023-07-31T09:00:09;100176.84;;;22.13;100.00
36062;BME280;22123;52.412;20.970;2023-07-31T09:05:11;100196.94;;;22.19;100.00
36062;BME280;22123;52.412;20.970;2023-07-31T09:07:37;100183.72;;;21.94;100.00
36062;BME280;22123;52.412;20.970;2023-07-31T09:10:04;100179.94;;;22.00;100.00
36062;BME280;22123;52.412;20.970;2023-07-31T09:12:30;100181.75;;;21.67;100.00
36062;BME280;22123;52.412;20.970;2023-07-31T09:14:59;100176.56;;;21.70;100.00
36062;BME280;22123;52.412;20.970;2023-07-31T09:17:30;100204.88;;;21.98;100.00
36062;BME280;22123;52.412;20.970;2023-07-31T09:19:56;100169.34;;;21.81;100.00
36062;BME280;22123;52.412;20.970;2023-07-31T09:22:34;100190.09;;;21.99;100.00
36062;BME280;22123;52.412;20.970;2023-07-31T09:25:19;100199.84;;;22.12;100.00
36062;BME280;22123;52.412;20.970;2023-07-31T09:30:30;100167.03;;;22.17;100.00
36062;BME280;22123;52.412;20.970;2023-07-31T09:33:03;100190.19;;;22.32;100.00
36062;BME280;22123;52.412;20.970;2023-07-31T09:35:31;100184.09;;;22.47;100.00
36062;BME280;22123;52.412;20.970;2023-07-31T09:37:58;100152.53;;;22.44;100.00
36062;BME280;22123;52.412;20.970;2023-07-31T09:40:32;100184.97;;;22.52;100.00
36062;BME280;22123;52.412;20.970;2023-07-31T09:43:09;100193.47;;;22.51;100.00
36062;BME280;22123;52.412;20.970;2023-07-31T09:45:37;100205.66;;;22.38;100.00
36062;BME280;22123;52.412;20.970;2023-07-31T09:48:03;100181.84;;;22.21;100.00
36062;BME280;22123;52.412;20.970;2023-07-31T09:50:32;100174.94;;;21.92;100.00
36062;BME280;22123;52.412;20.970;2023-07-31T09:52:58;100203.09;;;22.09;100.00
36062;BME280;22123;52.412;20.970;2023-07-31T09:55:24;100211.72;;;22.18;100.00
36062;BME280;22123;52.412;20.970;2023-07-31T10:00:17;100208.72;;;22.42;100.00
36062;BME280;22123;52.412;20.970;2023-07-31T10:02:47;100206.56;;;22.44;100.00
36062;BME280;22123;52.412;20.970;2023-07-31T10:05:15;100174.47;;;22.44;100.00
36062;BME280;22123;52.412;20.970;2023-07-31T10:07:45;100163.31;;;22.51;100.00
36062;BME280;22123;52.412;20.970;2023-07-31T10:10:15;100185.19;;;22.73;100.00
36062;BME280;22123;52.412;20.970;2023-07-31T10:12:41;100186.69;;;22.91;100.00
36062;BME280;22123;52.412;20.970;2023-07-31T10:15:08;100175.38;;;22.82;100.00
36062;BME280;22123;52.412;20.970;2023-07-31T10:17:35;100204.63;;;22.99;100.00
36062;BME280;22123;52.412;20.970;2023-07-31T10:20:02;100193.84;;;22.92;100.00
36062;BME280;22123;52.412;20.970;2023-07-31T10:22:29;100203.84;;;23.08;100.00
36062;BME280;22123;52.412;20.970;2023-07-31T10:24:58;100205.78;;;23.08;100.00
36062;BME280;22123;52.412;20.970;2023-07-31T10:27:24;100183.88;;;22.81;100.00
36062;BME280;22123;52.412;20.970;2023-07-31T10:29:52;100177.38;;;23.19;100.00
36062;BME280;22123;52.412;20.970;2023-07-31T10:32:19;100209.03;;;23.75;100.00
36062;BME280;22123;52.412;20.970;2023-07-31T10:34:46;100197.53;;;24.46;100.00
36062;BME280;22123;52.412;20.970;2023-07-31T10:40:13;100180.75;;;25.72;100.00
36062;BME280;22123;52.412;20.970;2023-07-31T10:42:49;100168.78;;;25.97;100.00
36062;BME280;22123;52.412;20.970;2023-07-31T10:48:02;100184.81;;;25.90;100.00
36062;BME280;22123;52.412;20.970;2023-07-31T10:50:30;100211.38;;;26.35;94.57
36062;BME280;22123;52.412;20.970;2023-07-31T10:52:56;100201.22;;;26.31;87.61
36062;BME280;22123;52.412;20.970;2023-07-31T10:57:55;100173.56;;;26.41;84.01
36062;BME280;22123;52.412;20.970;2023-07-31T11:00:26;100160.16;;;27.03;85.32
36062;BME280;22123;52.412;20.970;2023-07-31T11:03:04;100200.59;;;27.53;78.42
36062;BME280;22123;52.412;20.970;2023-07-31T11:08:26;100188.84;;;27.66;79.45
36062;BME280;22123;52.412;20.970;2023-07-31T11:13:28;100192.38;;;27.48;83.93
36062;BME280;22123;52.412;20.970;2023-07-31T11:15:54;100149.69;;;27.00;82.84
36062;BME280;22123;52.412;20.970;2023-07-31T11:18:20;100142.91;;;26.48;81.73
36062;BME280;22123;52.412;20.970;2023-07-31T11:20:46;100157.66;;;26.23;87.38
36062;BME280;22123;52.412;20.970;2023-07-31T11:23:12;100195.38;;;25.67;81.60
36062;BME280;22123;52.412;20.970;2023-07-31T11:25:39;100192.34;;;25.53;89.93
36062;BME280;22123;52.412;20.970;2023-07-31T11:28:06;100200.38;;;25.13;84.75
36062;BME280;22123;52.412;20.970;2023-07-31T11:30:33;100186.03;;;24.91;86.79
36062;BME280;22123;52.412;20.970;2023-07-31T11:33:01;100177.78;;;24.75;87.54
36062;BME280;22123;52.412;20.970;2023-07-31T11:35:27;100134.50;;;24.29;92.03
36062;BME280;22123;52.412;20.970;2023-07-31T11:37:53;100175.16;;;24.17;91.80
36062;BME280;22123;52.412;20.970;2023-07-31T11:40:19;100187.22;;;24.11;98.28
36062;BME280;22123;52.412;20.970;2023-07-31T11:42:45;100111.63;;;23.45;99.92
36062;BME280;22123;52.412;20.970;2023-07-31T11:45:11;100142.75;;;23.61;94.30
36062;BME280;22123;52.412;20.970;2023-07-31T11:47:37;100154.91;;;23.81;91.93
36062;BME280;22123;52.412;20.970;2023-07-31T11:50:04;100165.09;;;23.80;99.77
36062;BME280;22123;52.412;20.970;2023-07-31T11:52:33;100191.66;;;23.64;97.41
36062;BME280;22123;52.412;20.970;2023-07-31T11:55:00;100175.22;;;23.32;94.98
36062;BME280;22123;52.412;20.970;2023-07-31T11:57:26;100173.81;;;23.19;93.48
36062;BME280;22123;52.412;20.970;2023-07-31T11:59:52;100160.09;;;22.91;96.36
36062;BME280;22123;52.412;20.970;2023-07-31T12:02:18;100155.78;;;22.68;100.00
36062;BME280;22123;52.412;20.970;2023-07-31T12:04:45;100170.50;;;22.89;100.00
36062;BME280;22123;52.412;20.970;2023-07-31T12:07:12;100151.06;;;22.64;100.00
36062;BME280;22123;52.412;20.970;2023-07-31T12:09:38;100143.94;;;22.63;100.00
36062;BME280;22123;52.412;20.970;2023-07-31T12:12:08;100177.56;;;22.80;100.00
36062;BME280;22123;52.412;20.970;2023-07-31T12:14:34;100168.78;;;23.11;95.56
36062;BME280;22123;52.412;20.970;2023-07-31T12:17:05;100151.66;;;22.71;100.00
36062;BME280;22123;52.412;20.970;2023-07-31T12:19:31;100151.66;;;22.71;100.00
36062;BME280;22123;52.412;20.970;2023-07-31T12:21:58;100165.16;;;22.72;97.60
36062;BME280;22123;52.412;20.970;2023-07-31T12:24:26;100145.97;;;22.45;100.00
36062;BME280;22123;52.412;20.970;2023-07-31T12:26:52;100130.31;;;22.46;100.00
36062;BME280;22123;52.412;20.970;2023-07-31T12:29:18;100138.88;;;22.49;100.00
36062;BME280;22123;52.412;20.970;2023-07-31T12:31:44;100127.34;;;22.25;100.00
36062;BME280;22123;52.412;20.970;2023-07-31T12:34:17;100157.28;;;22.32;100.00
36062;BME280;22123;52.412;20.970;2023-07-31T12:36:43;100106.31;;;22.09;100.00
36062;BME280;22123;52.412;20.970;2023-07-31T12:39:09;100120.28;;;22.29;100.00
36062;BME280;22123;52.412;20.970;2023-07-31T12:41:35;100117.78;;;22.28;100.00
36062;BME280;22123;52.412;20.970;2023-07-31T12:44:01;100107.50;;;22.40;100.00
36062;BME280;22123;52.412;20.970;2023-07-31T12:46:27;100104.84;;;22.23;100.00
36062;BME280;22123;52.412;20.970;2023-07-31T12:48:52;100130.03;;;22.42;100.00
36062;BME280;22123;52.412;20.970;2023-07-31T12:51:18;100122.28;;;22.39;100.00